Time;durP1;ratioP1;P1;durP2;ratioP2;P2;SDS_P1;SDS_P2;PMS_P1;PMS_P2;Temp;Humidity;BMP_temperature;BMP_pressure;BME280_temperature;BME280_humidity;BME280_pressure;Samples;Min_cycle;Max_cycle;Signal;HPM_P1;HPM_P2
2021/07/09 00:04:26;;;;;;;14.35;9.30;;;14.30;99.90;;;;;;4923378;29;20075;-92
2021/07/09 00:07:36;;;;;;;24.45;8.57;;;14.30;99.90;;;;;;4863394;29;20198;-90
2021/07/09 00:10:37;;;;;;;14.60;8.57;;;14.30;99.90;;;;;;4845571;29;20132;-92
2021/07/09 00:13:56;;;;;;;13.90;9.02;;;14.30;99.90;;;;;;4860678;29;20105;-89
2021/07/09 00:16:47;;;;;;;16.52;8.40;;;14.30;99.90;;;;;;4857544;29;20050;-92
2021/07/09 00:19:53;;;;;;;;;;;;;;;;;;;;;
2021/07/09 00:23:09;;;;;;;11.63;7.93;;;14.40;99.90;;;;;;4877431;29;20062;-89
2021/07/09 00:26:06;;;;;;;15.40;9.05;;;14.40;99.90;;;;;;4953415;28;20054;-92
2021/07/09 00:28:54;;;;;;;25.67;9.77;;;14.40;99.90;;;;;;4970299;28;20047;-91
2021/07/09 00:31:46;;;;;;;14.40;9.18;;;14.40;99.90;;;;;;4973234;28;20094;-88
2021/07/09 00:34:33;;;;;;;12.88;8.95;;;14.40;99.90;;;;;;4974520;28;20051;-90
2021/07/09 00:37:23;;;;;;;15.77;8.95;;;14.40;99.90;;;;;;4975971;28;20054;-91
2021/07/09 00:40:19;;;;;;;13.35;9.13;;;14.40;99.90;;;;;;4965034;28;20113;-90
2021/07/09 00:43:17;;;;;;;12.77;8.60;;;14.40;99.90;;;;;;4963408;28;20200;-93
2021/07/09 00:46:08;;;;;;;17.40;8.50;;;14.40;99.90;;;;;;4974714;28;20051;-92
2021/07/09 00:49:23;;;;;;;18.92;8.60;;;14.40;99.90;;;;;;4978865;28;20153;-90
2021/07/09 00:52:34;;;;;;;10.10;7.47;;;14.40;99.90;;;;;;4941885;28;20047;-93
2021/07/09 00:55:21;;;;;;;13.18;7.70;;;14.40;99.90;;;;;;4965541;28;20043;-93
2021/07/09 00:58:49;;;;;;;13.05;8.05;;;14.30;99.90;;;;;;4976576;28;20043;-91
2021/07/09 01:01:49;;;;;;;;;;;;;;;;;;;;;
2021/07/09 01:05:09;;;;;;;8.90;7.20;;;14.30;99.90;;;;;;4972920;28;20046;-93
2021/07/09 01:08:59;;;;;;;;;;;;;;;;;;;;;
2021/07/09 01:12:02;;;;;;;8.30;7.00;;;14.30;99.90;;;;;;4965730;28;20123;-91
2021/07/09 01:15:31;;;;;;;10.70;6.75;;;14.30;99.90;;;;;;4972446;28;20070;-91
2021/07/09 01:18:21;;;;;;;10.23;7.40;;;14.30;99.90;;;;;;4979469;28;20103;-93
2021/07/09 01:21:12;;;;;;;9.60;7.47;;;14.30;99.90;;;;;;4980965;28;20047;-91
2021/07/09 01:24:12;;;;;;;;;;;;;;;;;;;;;
2021/07/09 01:27:00;;;;;;;12.43;6.88;;;14.20;99.90;;;;;;4977266;28;20186;-93
2021/07/09 01:29:51;;;;;;;14.65;7.95;;;14.30;99.90;;;;;;4962784;28;20058;-88
2021/07/09 01:32:38;;;;;;;9.10;6.80;;;14.20;99.90;;;;;;4985276;28;20046;-92
2021/07/09 01:36:04;;;;;;;8.43;6.38;;;14.20;99.90;;;;;;4985805;28;20067;-90
2021/07/09 01:39:00;;;;;;;10.05;5.57;;;14.30;99.90;;;;;;4975285;28;20130;-92
2021/07/09 01:42:11;;;;;;;12.43;6.10;;;14.20;99.90;;;;;;4975874;28;20085;-91
2021/07/09 01:45:04;;;;;;;10.70;7.20;;;14.20;99.90;;;;;;4967538;28;20101;-91
2021/07/09 01:48:06;;;;;;;7.80;6.70;;;14.20;99.90;;;;;;4977212;28;20484;-91
2021/07/09 01:50:57;;;;;;;11.10;6.10;;;14.20;99.90;;;;;;4977946;28;20058;-90
2021/07/09 01:53:51;;;;;;;10.82;6.80;;;14.10;99.90;;;;;;4961356;28;20043;-92
2021/07/09 01:57:08;;;;;;;;;;;;;;;;;;;;;
2021/07/09 02:03:42;;;;;;;11.15;6.40;;;14.10;99.90;;;;;;4985827;28;20181;-92
2021/07/09 02:06:48;;;;;;;7.15;6.18;;;14.10;99.90;;;;;;4921407;29;20508;-93
2021/07/09 02:09:38;;;;;;;9.02;7.10;;;14.00;99.90;;;;;;4933027;29;20132;-93
2021/07/09 02:12:56;;;;;;;17.33;6.55;;;14.00;99.90;;;;;;4919760;29;20044;-90
2021/07/09 02:16:05;;;;;;;11.18;6.72;;;14.00;99.90;;;;;;4934847;29;20040;-92
2021/07/09 02:19:03;;;;;;;8.38;6.95;;;14.00;99.90;;;;;;4918151;29;20059;-92
2021/07/09 02:22:31;;;;;;;10.65;6.80;;;14.00;99.90;;;;;;4889973;29;20048;-92
2021/07/09 02:25:57;;;;;;;;;;;;;;;;;;;;;
2021/07/09 02:29:02;;;;;;;12.30;6.32;;;13.90;99.90;;;;;;4899746;29;20124;-91
2021/07/09 02:32:52;;;;;;;9.90;6.70;;;13.90;99.90;;;;;;4856024;29;20060;-90
2021/07/09 02:35:48;;;;;;;15.60;6.40;;;13.90;99.90;;;;;;4851674;29;20136;-92
2021/07/09 02:42:53;;;;;;;;;;;;;;;;;;;;;
2021/07/09 02:45:47;;;;;;;8.90;6.97;;;13.80;99.90;;;;;;4897894;29;20128;-92
2021/07/09 02:49:15;;;;;;;10.23;6.75;;;13.80;99.90;;;;;;4894503;29;20048;-91
2021/07/09 02:52:09;;;;;;;11.95;6.60;;;13.80;99.90;;;;;;4892662;29;20127;-90
2021/07/09 02:54:57;;;;;;;7.05;6.35;;;13.80;99.90;;;;;;4928352;29;20116;-90
2021/07/09 02:58:05;;;;;;;11.57;7.78;;;13.80;99.90;;;;;;4926584;29;20047;-91
2021/07/09 03:01:26;;;;;;;9.40;6.70;;;13.80;99.90;;;;;;4936840;29;20114;-92
2021/07/09 03:04:28;;;;;;;12.60;7.75;;;13.80;99.90;;;;;;4973699;28;20047;-90
2021/07/09 03:08:10;;;;;;;;;;;;;;;;;;;;;
2021/07/09 03:11:08;;;;;;;12.20;7.35;;;13.70;99.90;;;;;;4955203;29;20055;-91
2021/07/09 03:14:05;;;;;;;;;;;;;;;;;;;;;
2021/07/09 03:16:57;;;;;;;16.80;7.40;;;13.80;99.90;;;;;;4952119;29;20057;-92
2021/07/09 03:19:45;;;;;;;7.60;6.68;;;13.80;99.90;;;;;;4945037;29;20043;-89
2021/07/09 03:22:52;;;;;;;10.13;6.65;;;13.80;99.90;;;;;;4944215;29;20404;-92
2021/07/09 03:25:42;;;;;;;9.18;7.43;;;13.70;99.90;;;;;;4931136;29;20059;-92
2021/07/09 03:28:50;;;;;;;13.52;6.55;;;13.80;99.90;;;;;;4936743;29;20349;-92
2021/07/09 03:32:01;;;;;;;;;;;;;;;;;;;;;
2021/07/09 03:35:14;;;;;;;11.93;6.78;;;13.80;99.90;;;;;;4936435;29;20126;-90
2021/07/09 03:38:13;;;;;;;11.35;7.15;;;13.80;99.90;;;;;;4956257;28;20361;-92
2021/07/09 03:41:25;;;;;;;12.38;7.30;;;13.80;99.90;;;;;;4967035;28;20043;-90
2021/07/09 03:44:17;;;;;;;12.85;8.95;;;13.80;99.90;;;;;;4976649;28;20483;-93
2021/07/09 03:47:14;;;;;;;14.57;8.30;;;13.80;99.90;;;;;;4946735;28;20129;-92
2021/07/09 03:50:27;;;;;;;14.18;6.75;;;13.90;99.90;;;;;;4981542;28;20051;-89
2021/07/09 03:53:20;;;;;;;9.07;7.00;;;13.90;99.90;;;;;;4965522;28;20070;-88
2021/07/09 03:56:10;;;;;;;9.30;6.55;;;13.90;99.90;;;;;;4986940;28;20058;-91
2021/07/09 03:59:02;;;;;;;10.43;7.03;;;13.90;99.90;;;;;;4976130;28;20065;-91
2021/07/09 04:01:49;;;;;;;12.05;7.22;;;13.90;99.90;;;;;;4976514;28;20049;-91
2021/07/09 04:04:44;;;;;;;12.10;8.13;;;13.90;99.90;;;;;;4977534;28;20046;-91
2021/07/09 04:07:58;;;;;;;11.45;7.57;;;13.90;99.90;;;;;;4973908;28;20098;-93
2021/07/09 04:10:48;;;;;;;8.50;7.45;;;14.00;99.90;;;;;;4964567;28;20188;-93
2021/07/09 04:14:22;;;;;;;;;;;;;;;;;;;;;
2021/07/09 04:17:33;;;;;;;10.80;7.13;;;13.90;99.90;;;;;;4964150;28;20043;-85
2021/07/09 04:29:14;;;;;;;;;;;;;;;;;;;;;
2021/07/09 04:57:59;;;;;;;8.48;5.90;;;13.80;99.90;;;;;;4855114;29;20534;-84
2021/07/09 05:00:47;;;;;;;8.10;5.57;;;13.80;99.90;;;;;;4954325;28;20130;-85
2021/07/09 05:03:34;;;;;;;9.43;5.97;;;13.70;99.90;;;;;;4959764;28;20111;-86
2021/07/09 05:06:26;;;;;;;6.40;5.50;;;13.80;99.90;;;;;;4964466;28;20097;-84
2021/07/09 05:09:14;;;;;;;6.93;5.70;;;13.70;99.90;;;;;;4972522;28;20266;-86
2021/07/09 05:12:05;;;;;;;7.25;5.65;;;13.70;99.90;;;;;;4973482;28;20050;-86
2021/07/09 05:14:52;;;;;;;6.28;5.68;;;13.80;99.90;;;;;;4976060;28;20058;-85
2021/07/09 05:17:39;;;;;;;9.43;5.72;;;13.80;99.90;;;;;;4969663;28;20121;-85
2021/07/09 05:20:29;;;;;;;6.85;5.97;;;13.80;99.90;;;;;;4975881;28;20111;-86
2021/07/09 05:23:16;;;;;;;6.68;5.60;;;13.80;99.90;;;;;;4972795;28;20043;-88
2021/07/09 05:26:04;;;;;;;9.80;6.65;;;13.80;99.90;;;;;;4974707;28;20101;-87
2021/07/09 05:28:59;;;;;;;6.50;5.53;;;13.80;99.90;;;;;;4976258;28;20135;-93
2021/07/09 05:31:53;;;;;;;8.23;5.90;;;13.80;99.90;;;;;;4967265;28;20094;-90
2021/07/09 05:34:41;;;;;;;9.63;6.75;;;13.80;99.90;;;;;;4979292;28;20039;-91
2021/07/09 05:37:29;;;;;;;9.88;7.03;;;13.80;99.90;;;;;;4971763;28;20097;-89
2021/07/09 05:44:33;;;;;;;12.10;6.90;;;13.90;99.90;;;;;;4951133;29;20134;-90
2021/07/09 05:48:15;;;;;;;7.78;6.40;;;13.90;99.90;;;;;;4960138;28;20114;-89
2021/07/09 05:59:09;;;;;;;9.10;6.13;;;14.10;99.90;;;;;;4913288;29;20048;-89
2021/07/09 06:02:00;;;;;;;13.02;6.53;;;14.20;99.90;;;;;;4906914;29;20048;-89
2021/07/09 06:04:52;;;;;;;8.77;5.88;;;14.30;99.90;;;;;;4915736;28;20351;-93
2021/07/09 06:08:53;;;;;;;10.98;6.45;;;14.30;99.90;;;;;;4947887;29;20036;-92
2021/07/09 06:17:35;;;;;;;9.07;6.55;;;14.50;99.90;;;;;;4899379;29;20122;-92
2021/07/09 06:20:58;;;;;;;9.23;6.28;;;14.60;99.90;;;;;;4832884;29;20065;-93
2021/07/09 06:28:17;;;;;;;10.45;6.85;;;14.60;99.90;;;;;;4851436;29;20037;-91
2021/07/09 06:31:24;;;;;;;10.45;7.43;;;14.60;99.90;;;;;;4931409;29;20039;-93
2021/07/09 06:35:09;;;;;;;12.73;8.65;;;14.50;99.90;;;;;;4933961;29;20396;-92
2021/07/09 06:50:41;;;;;;;14.35;8.25;;;14.60;99.90;;;;;;4888916;29;20042;-91
2021/07/09 06:54:42;;;;;;;;;;;;;;;;;;;;;
2021/07/09 06:58:23;;;;;;;12.50;8.38;;;14.70;99.90;;;;;;4807884;29;20058;-90
2021/07/09 07:02:08;;;;;;;9.30;8.27;;;14.90;99.90;;;;;;4780314;30;20039;-89
2021/07/09 07:08:57;;;;;;;8.57;6.97;;;15.10;99.90;;;;;;4789128;29;20123;-89
2021/07/09 07:11:49;;;;;;;11.95;7.45;;;15.30;99.90;;;;;;4784763;29;20177;-93
2021/07/09 07:14:55;;;;;;;9.48;6.93;;;15.40;99.90;;;;;;4827542;29;20047;-91
2021/07/09 07:18:20;;;;;;;;;;;;;;;;;;;;;
2021/07/09 07:21:43;;;;;;;7.85;5.93;;;15.80;99.90;;;;;;4977687;28;20061;-93
2021/07/09 07:28:08;;;;;;;7.55;6.63;;;15.80;99.90;;;;;;4945065;28;20130;-91
2021/07/09 07:31:33;;;;;;;;;;;;;;;;;;;;;
2021/07/09 07:34:26;;;;;;;6.72;6.00;;;15.80;99.90;;;;;;4962741;28;20046;-92
2021/07/09 07:40:49;;;;;;;;;;;15.90;99.90;;;;;;4891809;29;20065;-90
2021/07/09 07:44:08;;;;;;;6.43;4.90;;;16.10;99.90;;;;;;4820606;29;19925;-90
2021/07/09 07:47:30;;;;;;;8.05;4.82;;;16.30;99.90;;;;;;4821784;29;20122;-92
2021/07/09 07:51:18;;;;;;;7.00;5.28;;;16.50;99.90;;;;;;4818315;29;20057;-90
2021/07/09 07:54:06;;;;;;;5.07;4.57;;;16.80;99.90;;;;;;4819430;29;20074;-91
2021/07/09 07:57:12;;;;;;;6.15;4.40;;;17.10;99.90;;;;;;4825340;29;20113;-89
2021/07/09 08:00:25;;;;;;;5.43;3.70;;;17.20;99.90;;;;;;4896194;29;20051;-92
2021/07/09 08:07:26;;;;;;;11.82;4.55;;;17.90;99.90;;;;;;4911499;28;20076;-90
2021/07/09 08:10:45;;;;;;;5.53;3.90;;;17.90;99.90;;;;;;4975039;28;20189;-91
2021/07/09 08:13:39;;;;;;;5.72;3.70;;;18.20;99.90;;;;;;4979093;28;20184;-90
2021/07/09 08:16:34;;;;;;;4.93;3.60;;;18.60;99.90;;;;;;4988175;28;20053;-91
2021/07/09 08:19:22;;;;;;;4.25;3.20;;;19.20;99.90;;;;;;4966550;28;20051;-89
2021/07/09 08:27:24;;;;;;;5.07;3.70;;;19.80;99.90;;;;;;4957013;28;20388;-91
2021/07/09 08:30:32;;;;;;;4.38;3.40;;;20.00;99.90;;;;;;4974331;28;20023;-93
2021/07/09 08:33:38;;;;;;;3.20;2.90;;;20.80;99.90;;;;;;4981063;28;20631;-92
2021/07/09 08:36:37;;;;;;;3.97;3.05;;;21.40;99.90;;;;;;4970480;28;20337;-91
2021/07/09 08:39:30;;;;;;;6.93;3.30;;;21.50;99.90;;;;;;4977569;28;20046;-91
2021/07/09 08:42:27;;;;;;;5.68;2.88;;;21.30;99.90;;;;;;4970332;28;20412;-92
2021/07/09 08:45:28;;;;;;;5.45;2.58;;;21.10;99.90;;;;;;4981066;28;20134;-91
2021/07/09 08:49:22;;;;;;;8.00;2.88;;;20.80;99.90;;;;;;4960052;28;20050;-91
2021/07/09 08:52:10;;;;;;;5.30;2.50;;;20.70;99.90;;;;;;4967809;28;20058;-89
2021/07/09 08:54:57;;;;;;;4.82;2.63;;;21.60;99.90;;;;;;4970129;28;20038;-86
2021/07/09 08:57:46;;;;;;;4.00;2.10;;;22.40;99.90;;;;;;4975643;28;20066;-90
2021/07/09 09:00:35;;;;;;;4.90;2.58;;;22.50;99.90;;;;;;4962439;28;20048;-90
2021/07/09 09:03:27;;;;;;;6.15;2.90;;;21.50;99.90;;;;;;4975584;28;20471;-90
2021/07/09 09:06:25;;;;;;;4.28;2.65;;;21.20;99.90;;;;;;4955989;28;20070;-89
2021/07/09 09:09:17;;;;;;;5.05;2.67;;;21.30;99.90;;;;;;4955258;28;20043;-92
2021/07/09 09:12:16;;;;;;;5.85;2.47;;;21.50;99.90;;;;;;4966460;28;20512;-92
2021/07/09 09:20:18;;;;;;;3.58;2.20;;;21.30;99.90;;;;;;4931770;29;20141;-88
2021/07/09 09:23:29;;;;;;;4.72;1.98;;;23.30;99.90;;;;;;4928484;29;20100;-91
2021/07/09 09:26:45;;;;;;;3.25;2.20;;;24.20;93.90;;;;;;4910171;29;20425;-92
2021/07/09 09:29:36;;;;;;;3.05;2.00;;;23.90;94.90;;;;;;4948187;28;20452;-89
2021/07/09 09:32:26;;;;;;;4.82;2.25;;;23.90;93.20;;;;;;4977677;28;20074;-89
2021/07/09 09:35:44;;;;;;;2.40;2.00;;;23.80;92.70;;;;;;4962277;28;20054;-92
2021/07/09 09:38:34;;;;;;;3.95;2.20;;;23.60;92.30;;;;;;4976204;28;20062;-91
2021/07/09 09:41:25;;;;;;;4.53;2.38;;;23.50;92.60;;;;;;4967862;28;20047;-89
2021/07/09 09:44:14;;;;;;;4.10;2.55;;;22.90;91.80;;;;;;4992115;28;20042;-89
2021/07/09 09:47:13;;;;;;;3.13;2.17;;;22.40;95.40;;;;;;4968836;28;20074;-89
2021/07/09 09:50:03;;;;;;;6.70;2.80;;;22.20;94.90;;;;;;4981671;28;20057;-91
2021/07/09 09:52:53;;;;;;;5.57;2.85;;;22.10;95.50;;;;;;4976435;28;20069;-91
2021/07/09 09:55:42;;;;;;;4.00;2.60;;;22.30;99.90;;;;;;4979005;28;20043;-88
2021/07/09 09:58:32;;;;;;;4.13;1.90;;;22.70;96.50;;;;;;4997301;28;20043;-92
2021/07/09 10:01:55;;;;;;;4.93;2.17;;;23.50;92.80;;;;;;4977640;28;20064;-91
2021/07/09 10:04:50;;;;;;;4.85;1.98;;;24.60;91.10;;;;;;4978981;28;20043;-90
2021/07/09 10:07:44;;;;;;;2.03;1.80;;;25.90;82.20;;;;;;4979934;28;20039;-86
2021/07/09 10:10:32;;;;;;;2.47;1.52;;;25.80;73.80;;;;;;4981014;28;20065;-88
2021/07/09 10:13:24;;;;;;;2.88;2.00;;;26.20;71.10;;;;;;4973171;28;20456;-88
2021/07/09 10:16:12;;;;;;;2.17;1.90;;;26.60;73.80;;;;;;4993949;28;20042;-87
2021/07/09 10:19:03;;;;;;;2.80;1.65;;;27.70;75.90;;;;;;4969396;28;20061;-89
2021/07/09 10:21:55;;;;;;;5.00;2.30;;;28.50;69.00;;;;;;4968364;28;20134;-88
2021/07/09 10:24:49;;;;;;;3.47;2.00;;;28.40;66.80;;;;;;4972382;28;20138;-87
2021/07/09 10:27:37;;;;;;;4.25;2.20;;;28.20;58.80;;;;;;4976545;28;20061;-88
2021/07/09 10:30:36;;;;;;;4.88;2.15;;;28.40;59.90;;;;;;4975031;28;20476;-87
2021/07/09 10:33:34;;;;;;;4.07;1.80;;;29.20;58.10;;;;;;4973774;28;20054;-85
2021/07/09 10:36:31;;;;;;;3.90;2.25;;;29.90;57.90;;;;;;4989616;28;20053;-87
2021/07/09 10:39:51;;;;;;;3.60;1.98;;;30.10;55.30;;;;;;4983027;28;20047;-90
2021/07/09 10:42:48;;;;;;;2.67;2.10;;;28.50;54.90;;;;;;4978767;28;20163;-91
2021/07/09 10:45:39;;;;;;;3.83;2.50;;;26.30;61.40;;;;;;4992406;28;20537;-90
2021/07/09 10:48:45;;;;;;;5.93;2.92;;;25.40;66.80;;;;;;4975192;28;20078;-91
2021/07/09 10:52:00;;;;;;;4.50;3.10;;;24.80;74.80;;;;;;4968754;28;20062;-92
2021/07/09 10:55:02;;;;;;;4.55;3.05;;;26.10;74.60;;;;;;4967172;28;20047;-93
2021/07/09 10:58:44;;;;;;;4.40;2.70;;;27.60;66.00;;;;;;4975549;28;20062;-89
2021/07/09 11:01:37;;;;;;;4.63;2.90;;;29.30;64.60;;;;;;4973195;28;20047;-89
2021/07/09 11:04:37;;;;;;;5.28;2.53;;;30.60;54.40;;;;;;4969669;28;20050;-91
2021/07/09 11:07:25;;;;;;;6.70;2.95;;;30.80;53.50;;;;;;4979873;28;20039;-89
2021/07/09 11:10:55;;;;;;;4.40;2.30;;;30.00;54.10;;;;;;4975048;28;20055;-90
2021/07/09 11:13:56;;;;;;;5.93;2.75;;;28.90;56.80;;;;;;4976355;28;20049;-88
2021/07/09 11:16:58;;;;;;;5.45;2.83;;;27.30;64.70;;;;;;4963590;28;20353;-88
2021/07/09 11:19:50;;;;;;;4.32;2.53;;;27.30;67.40;;;;;;4975263;28;20042;-88
2021/07/09 11:22:40;;;;;;;3.47;2.40;;;28.70;64.10;;;;;;4972538;28;20138;-88
2021/07/09 11:25:27;;;;;;;11.05;2.70;;;29.70;51.60;;;;;;4959816;28;20050;-88
2021/07/09 11:28:29;;;;;;;4.88;2.45;;;29.80;50.90;;;;;;4973769;28;20047;-87
2021/07/09 11:31:31;;;;;;;3.45;2.40;;;29.80;55.50;;;;;;4966954;28;20483;-89
2021/07/09 11:34:20;;;;;;;5.60;2.67;;;30.10;50.10;;;;;;4969705;28;20051;-87
2021/07/09 11:37:16;;;;;;;2.92;2.70;;;29.80;51.20;;;;;;4966456;28;20039;-86
2021/07/09 11:40:11;;;;;;;5.43;2.88;;;29.10;53.20;;;;;;4981862;28;20051;-89
2021/07/09 11:42:59;;;;;;;5.10;2.63;;;29.50;56.20;;;;;;4971091;28;20425;-88
2021/07/09 11:45:48;;;;;;;2.60;2.13;;;30.60;53.00;;;;;;4978507;28;20104;-86
2021/07/09 11:48:37;;;;;;;4.43;2.22;;;31.80;52.40;;;;;;4982816;28;20050;-88
2021/07/09 11:51:26;;;;;;;3.13;2.00;;;32.20;53.00;;;;;;4976106;28;20070;-90
2021/07/09 11:54:22;;;;;;;4.40;2.17;;;32.60;45.30;;;;;;4993177;28;20034;-91
2021/07/09 11:57:14;;;;;;;4.63;1.95;;;32.60;46.60;;;;;;4988323;28;20116;-90
2021/07/09 12:00:12;;;;;;;2.97;2.17;;;32.40;47.80;;;;;;4969781;28;20043;-89
2021/07/09 12:02:59;;;;;;;3.30;1.73;;;31.70;46.10;;;;;;5001249;28;20073;-90
2021/07/09 12:05:48;;;;;;;2.63;1.98;;;31.30;48.80;;;;;;4974062;28;20049;-90
2021/07/09 12:08:40;;;;;;;3.90;1.90;;;31.90;45.30;;;;;;4975600;28;20062;-89
2021/07/09 12:11:28;;;;;;;3.70;2.05;;;32.10;43.60;;;;;;4980844;28;20173;-90
2021/07/09 12:14:18;;;;;;;4.88;1.65;;;32.10;47.80;;;;;;4952180;28;20076;-89
2021/07/09 12:17:16;;;;;;;5.32;1.60;;;32.00;44.90;;;;;;4972159;28;20484;-91
2021/07/09 12:20:19;;;;;;;2.10;1.63;;;31.80;43.80;;;;;;4978767;28;20054;-88
2021/07/09 12:23:16;;;;;;;2.97;1.50;;;32.00;43.80;;;;;;4973700;28;20049;-90
2021/07/09 12:26:06;;;;;;;2.65;1.33;;;32.30;42.40;;;;;;4966014;28;20055;-90
2021/07/09 12:28:59;;;;;;;2.65;1.45;;;32.70;42.40;;;;;;4975744;28;20049;-90
2021/07/09 12:31:48;;;;;;;3.38;1.70;;;32.40;43.40;;;;;;4965250;28;20518;-88
2021/07/09 12:34:37;;;;;;;3.15;1.83;;;31.00;44.20;;;;;;4970746;28;20413;-91
2021/07/09 12:37:27;;;;;;;3.20;1.60;;;29.50;48.70;;;;;;4975425;28;20094;-89
2021/07/09 12:40:18;;;;;;;4.47;2.00;;;28.20;53.80;;;;;;4956456;28;20511;-88
2021/07/09 12:43:29;;;;;;;2.80;1.90;;;27.70;55.30;;;;;;4971216;28;20130;-89
2021/07/09 12:46:26;;;;;;;3.58;2.00;;;27.30;55.20;;;;;;4982965;28;20046;-90
2021/07/09 12:49:21;;;;;;;8.40;3.63;;;26.80;55.10;;;;;;4976933;28;20054;-89
2021/07/09 12:52:09;;;;;;;21.95;7.32;;;26.60;55.20;;;;;;4983367;28;20055;-89
2021/07/09 12:55:07;;;;;;;6.55;3.25;;;26.60;59.00;;;;;;4962247;28;20043;-90
2021/07/09 12:57:54;;;;;;;9.05;3.40;;;26.40;56.40;;;;;;4973249;28;20043;-88
2021/07/09 13:00:56;;;;;;;15.27;4.68;;;26.00;57.40;;;;;;4980369;28;20054;-90
2021/07/09 13:03:46;;;;;;;4.80;2.53;;;25.40;58.40;;;;;;4967432;28;20472;-90
2021/07/09 13:06:33;;;;;;;4.20;2.83;;;25.00;61.70;;;;;;4961576;28;20043;-88
2021/07/09 13:09:21;;;;;;;8.35;4.15;;;25.20;61.10;;;;;;4980338;28;20386;-89
2021/07/09 13:12:21;;;;;;;18.35;6.63;;;25.90;62.50;;;;;;4979306;28;20055;-90
2021/07/09 13:15:10;;;;;;;10.90;3.90;;;26.20;61.30;;;;;;4975467;28;20043;-89
2021/07/09 13:18:05;;;;;;;25.15;8.07;;;25.60;64.30;;;;;;4973671;28;20053;-87
2021/07/09 13:21:16;;;;;;;2.95;2.40;;;25.00;65.60;;;;;;4977255;28;20035;-90
2021/07/09 13:24:07;;;;;;;4.30;2.85;;;24.30;68.20;;;;;;4974905;28;20043;-88
2021/07/09 13:26:55;;;;;;;4.45;3.25;;;23.70;71.60;;;;;;4970500;28;20464;-91
2021/07/09 13:29:45;;;;;;;5.88;3.13;;;23.10;75.30;;;;;;4978454;28;20163;-89
2021/07/09 13:32:41;;;;;;;6.10;3.50;;;22.60;77.70;;;;;;4978675;28;20058;-89
2021/07/09 13:35:31;;;;;;;4.60;2.72;;;22.10;83.60;;;;;;4994363;28;20046;-89
2021/07/09 13:38:19;;;;;;;4.68;3.25;;;21.90;84.90;;;;;;4982647;28;20460;-87
2021/07/09 13:41:06;;;;;;;4.20;3.00;;;21.70;90.80;;;;;;4979330;28;20074;-86
2021/07/09 13:43:55;;;;;;;3.75;2.90;;;21.70;93.80;;;;;;4981512;28;20577;-90
2021/07/09 13:46:45;;;;;;;5.32;3.13;;;21.70;91.10;;;;;;4988707;28;20085;-87
2021/07/09 13:49:33;;;;;;;3.00;2.72;;;21.90;93.50;;;;;;4971571;28;20117;-87
2021/07/09 13:52:22;;;;;;;4.68;3.10;;;21.90;91.60;;;;;;4977337;28;20051;-86
2021/07/09 13:55:13;;;;;;;4.50;3.25;;;21.90;94.80;;;;;;4977662;28;20039;-86
2021/07/09 13:58:01;;;;;;;5.35;2.75;;;21.80;91.80;;;;;;4964170;28;20039;-87
2021/07/09 14:00:51;;;;;;;5.13;3.00;;;21.80;94.80;;;;;;4971673;28;20054;-88
2021/07/09 14:03:39;;;;;;;3.90;2.90;;;21.60;93.40;;;;;;4973524;28;20098;-87
2021/07/09 14:06:29;;;;;;;3.38;2.90;;;21.60;96.90;;;;;;4976129;28;20053;-86
2021/07/09 14:09:18;;;;;;;3.17;2.53;;;21.70;97.50;;;;;;4976043;28;20136;-88
2021/07/09 14:12:09;;;;;;;4.45;2.55;;;21.70;95.20;;;;;;4981445;28;20057;-91
2021/07/09 14:14:56;;;;;;;6.35;2.58;;;21.50;91.90;;;;;;4977553;28;20049;-89
2021/07/09 14:17:46;;;;;;;5.05;2.38;;;21.50;90.60;;;;;;4984177;28;20188;-87
2021/07/09 14:20:34;;;;;;;4.65;2.70;;;21.40;91.60;;;;;;4972059;28;20121;-89
2021/07/09 14:23:23;;;;;;;5.60;2.72;;;21.60;92.30;;;;;;4962671;28;20469;-89
2021/07/09 14:26:10;;;;;;;4.38;2.60;;;21.70;90.60;;;;;;4981073;28;20049;-87
2021/07/09 14:29:00;;;;;;;3.03;2.42;;;21.90;92.00;;;;;;4974763;28;20073;-89
2021/07/09 14:31:49;;;;;;;4.13;2.40;;;21.80;91.00;;;;;;4976151;28;20046;-88
2021/07/09 14:34:37;;;;;;;3.72;2.35;;;21.80;91.70;;;;;;4976530;28;20066;-89
2021/07/09 14:37:28;;;;;;;4.10;2.25;;;21.80;93.00;;;;;;4980043;28;20043;-88
2021/07/09 14:40:22;;;;;;;4.20;2.30;;;21.80;91.70;;;;;;4986024;28;20054;-85
2021/07/09 14:43:11;;;;;;;4.22;2.70;;;21.60;92.20;;;;;;4981442;28;20124;-87
2021/07/09 14:45:58;;;;;;;3.83;2.88;;;21.40;94.60;;;;;;4977138;28;20070;-88
2021/07/09 14:48:46;;;;;;;6.20;2.67;;;21.30;94.30;;;;;;4965411;28;20098;-88
2021/07/09 14:51:43;;;;;;;5.00;2.97;;;21.10;96.20;;;;;;4980822;28;20182;-87
2021/07/09 14:54:30;;;;;;;5.07;2.63;;;20.90;96.10;;;;;;4981270;28;20051;-88
2021/07/09 14:57:18;;;;;;;2.78;2.50;;;20.80;96.10;;;;;;4981259;28;20046;-89
2021/07/09 15:00:11;;;;;;;2.33;2.08;;;20.60;97.10;;;;;;4969283;28;20087;-88
2021/07/09 15:03:00;;;;;;;7.90;1.90;;;20.20;99.10;;;;;;4974870;28;20149;-87
2021/07/09 15:05:48;;;;;;;5.18;3.10;;;19.70;99.90;;;;;;4987060;28;20042;-86
2021/07/09 15:08:36;;;;;;;2.80;2.60;;;19.30;99.90;;;;;;4978009;28;20469;-87
2021/07/09 15:11:24;;;;;;;6.65;2.38;;;19.00;99.90;;;;;;4973866;28;20055;-88
2021/07/09 15:14:15;;;;;;;2.83;2.42;;;18.70;99.90;;;;;;4970773;28;20051;-87
2021/07/09 15:17:03;;;;;;;6.80;2.60;;;18.50;99.90;;;;;;4980394;28;20035;-87
2021/07/09 15:19:52;;;;;;;5.80;1.95;;;18.40;99.90;;;;;;4980577;28;20069;-87
2021/07/09 15:22:40;;;;;;;1.98;1.88;;;18.30;99.90;;;;;;4976154;28;20046;-85
2021/07/09 15:25:27;;;;;;;2.83;1.80;;;18.40;99.90;;;;;;4973930;28;20046;-87
2021/07/09 15:28:18;;;;;;;2.10;1.90;;;18.50;99.90;;;;;;4967434;28;20200;-87
2021/07/09 15:31:08;;;;;;;2.78;1.73;;;18.60;99.90;;;;;;4970654;28;20377;-87
2021/07/09 15:33:58;;;;;;;4.05;1.60;;;18.80;99.90;;;;;;4968792;28;20052;-88
2021/07/09 15:36:46;;;;;;;2.05;1.80;;;19.10;99.90;;;;;;4976294;28;20476;-87
2021/07/09 15:39:33;;;;;;;3.42;2.10;;;19.40;99.90;;;;;;4974658;28;20050;-86
2021/07/09 15:42:26;;;;;;;4.30;2.00;;;19.70;99.90;;;;;;4964182;28;20093;-87
2021/07/09 15:45:13;;;;;;;2.40;1.35;;;19.90;99.90;;;;;;4971985;28;20469;-87
2021/07/09 15:48:12;;;;;;;2.50;2.20;;;20.00;99.90;;;;;;4988431;28;20042;-88
2021/07/09 15:51:05;;;;;;;3.50;3.17;;;20.00;99.90;;;;;;4984492;28;20043;-87
2021/07/09 15:53:54;;;;;;;3.63;2.72;;;20.00;99.90;;;;;;4965308;28;20062;-86
2021/07/09 15:56:41;;;;;;;5.65;2.88;;;20.10;99.90;;;;;;4979987;28;20043;-87
2021/07/09 15:59:29;;;;;;;2.53;1.90;;;20.30;99.90;;;;;;4986037;28;20047;-89
2021/07/09 16:02:19;;;;;;;2.53;1.73;;;20.40;99.90;;;;;;4969910;28;20365;-87
2021/07/09 16:05:06;;;;;;;2.53;1.88;;;20.80;99.90;;;;;;4964175;28;20465;-86
2021/07/09 16:07:55;;;;;;;4.05;1.75;;;21.00;99.90;;;;;;4970606;28;20054;-87
2021/07/09 16:10:42;;;;;;;3.17;1.92;;;21.60;99.90;;;;;;4969301;28;20070;-87
2021/07/09 16:13:29;;;;;;;3.17;1.80;;;22.50;99.90;;;;;;4974448;28;20451;-87
2021/07/09 16:16:17;;;;;;;5.95;1.98;;;23.40;96.10;;;;;;4968370;28;20056;-88
2021/07/09 16:19:07;;;;;;;3.58;1.92;;;24.60;92.00;;;;;;4974683;28;20192;-89
2021/07/09 16:21:59;;;;;;;6.70;1.95;;;25.20;90.60;;;;;;4970714;28;20053;-90
2021/07/09 16:24:48;;;;;;;5.25;1.80;;;25.20;85.40;;;;;;4964933;28;20145;-89
2021/07/09 16:27:47;;;;;;;5.15;2.00;;;25.10;85.80;;;;;;4973434;28;20121;-88
2021/07/09 16:30:34;;;;;;;2.40;1.70;;;25.20;88.50;;;;;;4980105;28;20035;-88
2021/07/09 16:33:25;;;;;;;3.72;2.03;;;25.10;82.10;;;;;;4972190;28;20256;-89
2021/07/09 16:36:12;;;;;;;4.50;2.28;;;24.80;84.20;;;;;;4975375;28;20141;-88
2021/07/09 16:38:59;;;;;;;4.60;2.50;;;24.60;90.10;;;;;;4968712;28;20110;-89
2021/07/09 16:41:48;;;;;;;4.85;2.30;;;24.40;86.10;;;;;;4966289;28;20448;-88
2021/07/09 16:44:43;;;;;;;3.70;2.38;;;24.30;85.40;;;;;;4971996;28;20050;-89
2021/07/09 16:47:36;;;;;;;4.47;2.63;;;24.00;83.40;;;;;;4958426;28;20157;-89
2021/07/09 16:50:23;;;;;;;3.40;2.40;;;23.50;90.70;;;;;;4967286;28;20065;-88
2021/07/09 16:53:10;;;;;;;5.28;2.72;;;22.90;91.00;;;;;;4970823;28;20154;-87
2021/07/09 16:56:01;;;;;;;4.93;3.20;;;22.30;92.20;;;;;;4972347;28;20130;-86
2021/07/09 16:58:48;;;;;;;3.97;2.95;;;21.90;93.90;;;;;;4974575;28;20042;-87
2021/07/09 17:01:35;;;;;;;3.00;2.72;;;21.40;95.50;;;;;;4971379;28;20046;-86
2021/07/09 17:04:25;;;;;;;6.18;3.20;;;21.10;97.20;;;;;;4971720;28;20047;-88
2021/07/09 17:07:14;;;;;;;6.03;3.45;;;21.00;99.00;;;;;;4976528;28;20128;-90
2021/07/09 17:10:02;;;;;;;7.82;3.70;;;20.80;99.90;;;;;;4971194;28;20417;-87
2021/07/09 17:12:49;;;;;;;7.55;4.90;;;20.80;99.90;;;;;;4969834;28;20043;-84
2021/07/09 17:15:39;;;;;;;4.00;3.45;;;20.70;99.90;;;;;;4976883;28;20043;-88
2021/07/09 17:18:27;;;;;;;11.82;7.70;;;20.60;99.90;;;;;;4964123;28;20135;-88
2021/07/09 17:21:38;;;;;;;6.30;3.90;;;20.60;99.90;;;;;;4960772;28;20043;-85
2021/07/09 17:24:51;;;;;;;7.00;3.85;;;20.40;99.90;;;;;;4963252;28;20122;-86
2021/07/09 17:27:42;;;;;;;4.88;4.13;;;20.30;99.90;;;;;;4962017;28;20337;-88
2021/07/09 17:30:32;;;;;;;5.15;3.58;;;20.10;99.90;;;;;;4973262;28;20110;-90